South Arkansas Regional At Goodwin Field
KELD : now visible

Airfield :











YOU CAN JOIN US ON...

 
LOGIN :

Register | Disclaimer

   EN    FR    IT 

 









Legend :    VFR   Marginal VFR   IFR   Intensive IFR   Very Intensive IFR
Visi :
Ceiling :
>= 8 km
>= 3000ft
5 to 8 km
1000 to 3000 ft
1500m to 5 km
500 to 1000 ft
800 to 1500m
200 to 500 ft
< 800m
< 200 ft
Symbols :   Thunderstorms  Fog  Heavy snow  Heavy precipitations  Wind > 20 kt






- Airport Elevation : 277 ft
- IATA code : ELD


KELD - South Arkansas Regional At Goodwin Field

CURRENT METAR :
  • 010053Z AUTO 00000KT 10SM FEW055 13/10 A3001 RMK AO2 SLP162 T01330100

EXPIRED METARs :
  • 312353Z AUTO 00000KT 10SM BKN050 17/08 A3000 RMK AO2 SLP156 T01670083 10194 20150 53008
  • 312253Z AUTO VRB05KT 10SM CLR 18/08 A2998 RMK AO2 SLP151 T01830078

TAF KELD
Valid from the 01 at 00:00 until the 02 at 00:00 UTC


312339Z 0100/0124 VRB05KT P6SM SKC
FM010200 00000KT P6SM SKC
FM011300 09005KT P6SM FEW250
FM012100 12005KT P6SM SKC



MET'MAP, your aeronautical weather chart ! - Copyright ORBIFLY December 2007 - Disclaimer

ORBIFLY MET'MAP TEAM :

Programming & Development : Alexandra Zaïnal
Concept & original design : Baudouin d'Aumeries
Assistance for programming : Marc-Olivier Méhu
Technical & hardware support : Manuel Goepfert

Contact : metmap@orbifly.com




SOURCES & CREDITS :

   NOAA       Earth
Advisory